createdAt,value
2023-02-13T00:02:08.242Z,141.4359
2023-02-13T00:07:09.742Z,140.80511
2023-02-13T00:12:11.234Z,139.55556
2023-02-13T00:17:12.895Z,145.30719
2023-02-13T00:22:14.494Z,140.80511
2023-02-13T00:27:16.240Z,140.17834
2023-02-13T00:32:17.871Z,140.17834
2023-02-13T00:37:19.356Z,139.55556
2023-02-13T00:42:20.943Z,142.70968
2023-02-13T00:47:22.440Z,147.30033
2023-02-13T00:52:23.925Z,147.30033
2023-02-13T00:57:25.643Z,152.81356
2023-02-13T01:02:27.143Z,168.81752
2023-02-13T01:07:28.630Z,157.88889
2023-02-13T01:12:30.351Z,158.63415
2023-02-13T01:17:31.922Z,150.02007
2023-02-13T01:22:33.405Z,150.02007
2023-02-13T01:27:35.250Z,151.40741
2023-02-13T01:32:36.908Z,145.30719
2023-02-13T01:37:38.367Z,157.14879
2023-02-13T01:42:40.029Z,147.97351
2023-02-13T01:47:41.502Z,138.32177
2023-02-13T01:52:43.275Z,134.71207
2023-02-13T01:57:44.933Z,137.71069
2023-02-13T02:02:46.645Z,141.4359
2023-02-13T02:07:48.138Z,136.5
2023-02-13T02:12:49.930Z,138.32177
2023-02-13T02:17:51.378Z,132.95706
2023-02-13T02:22:53.110Z,134.12346
2023-02-13T02:27:54.729Z,126.78932
2023-02-13T02:32:56.303Z,126.24852
2023-02-13T02:37:57.882Z,132.95706
2023-02-13T02:42:59.632Z,122.55072
2023-02-13T02:48:01.407Z,123.06977
2023-02-13T02:53:03.168Z,132.3792
2023-02-13T02:58:05.134Z,130.66667
2023-02-13T03:03:07.073Z,123.06977
2023-02-13T03:08:08.790Z,123.06977
2023-02-13T03:13:10.666Z,115.58774
2023-02-13T03:18:12.390Z,109.5914
2023-02-13T03:23:13.885Z,115.11111
2023-02-13T03:28:15.653Z,122.55072
2023-02-13T03:33:17.538Z,115.11111
2023-02-13T03:38:18.992Z,124.11696
2023-02-13T03:43:20.536Z,116.06704
2023-02-13T03:48:22.010Z,120.5043
2023-02-13T03:53:23.440Z,112.30601
2023-02-13T03:58:25.282Z,116.54902
2023-02-13T04:03:26.897Z,115.11111
2023-02-13T04:08:28.649Z,116.54902
2023-02-13T04:13:30.463Z,110.03774
2023-02-13T04:18:32.181Z,114.16575
2023-02-13T04:23:35.978Z,106.10526
2023-02-13T04:28:38.873Z,104.41667
2023-02-13T04:33:40.570Z,97.23383
2023-02-13T04:38:42.417Z,100.743
2023-02-13T04:43:44.033Z,104.83551
2023-02-13T04:48:45.618Z,99.55556
2023-02-13T04:53:47.554Z,94.2439
2023-02-13T04:58:49.250Z,94.98039
2023-02-13T05:03:51.057Z,91.01671
2023-02-13T05:08:52.926Z,90.66667
2023-02-13T05:13:54.677Z,91.72182
2023-02-13T05:18:56.559Z,87.25581
2023-02-13T05:23:58.332Z,88.2623
2023-02-13T05:29:00.244Z,92.07692
2023-02-13T05:34:02.162Z,92.79227
2023-02-13T05:39:03.794Z,92.43373
2023-02-13T05:44:05.648Z,93.15254
2023-02-13T05:49:07.399Z,90.31829
2023-02-13T05:54:08.991Z,90.31829
2023-02-13T05:59:10.744Z,98.38596
2023-02-13T06:04:12.762Z,96.47525
2023-02-13T06:09:14.728Z,98.77387
2023-02-13T06:14:16.704Z,100.743
2023-02-13T06:19:18.638Z,96.8536
2023-02-13T06:24:20.585Z,101.54476
2023-02-13T06:29:22.632Z,103.58549
2023-02-13T06:34:24.557Z,105.67979
2023-02-13T06:39:26.494Z,106.10526
2023-02-13T06:44:28.453Z,103.17313
2023-02-13T06:49:30.343Z,106.96296
2023-02-13T06:54:46.368Z,104.83551
2023-02-13T06:59:49.741Z,110.93767
2023-02-13T07:04:51.501Z,108.70588
2023-02-13T07:09:53.272Z,111.3913
2023-02-13T07:14:55.057Z,106.96296
2023-02-13T07:19:56.681Z,104.83551
2023-02-13T07:24:58.330Z,110.48649
2023-02-13T07:30:00.018Z,114.63712
2023-02-13T07:35:02.639Z,120
2023-02-13T07:40:05.678Z,117.03371
2023-02-13T07:45:08.476Z,130.10272
2023-02-13T07:50:10.152Z,131.80488
2023-02-13T07:55:11.887Z,111.3913
2023-02-13T08:00:13.602Z,111.84741
2023-02-13T08:05:15.352Z,120.5043
2023-02-13T08:10:16.933Z,131.80488
2023-02-13T08:15:18.570Z,132.3792
2023-02-13T08:20:20.418Z,131.23404
2023-02-13T08:25:22.241Z,140.80511
2023-02-13T08:30:24.109Z,139.55556
2023-02-13T08:35:25.908Z,144.65147
2023-02-13T08:40:28.018Z,126.24852
2023-02-13T08:45:29.700Z,151.40741
2023-02-13T08:50:31.399Z,153.52381
2023-02-13T08:55:33.261Z,145.30719
2023-02-13T09:00:45.600Z,163.21708
2023-02-13T09:05:47.330Z,162.43972
2023-02-13T09:10:48.981Z,168
2023-02-13T09:15:50.608Z,182.75969
2023-02-13T09:20:52.280Z,196.45902
2023-02-13T09:25:54.007Z,198.54545
2023-02-13T09:30:55.911Z,200.66667
2023-02-13T09:35:57.897Z,194.4065
2023-02-13T09:40:59.874Z,191.38956
2023-02-13T09:46:01.801Z,268.21053
2023-02-13T09:51:03.659Z,216.56637
2023-02-13T09:56:05.584Z,273.41176
2023-02-13T10:01:07.241Z,261.52577
2023-02-13T10:06:09.042Z,241.58454
2023-02-13T10:11:10.900Z,271.65957
2023-02-13T10:16:13.263Z,237.33333
2023-02-13T10:21:15.409Z,214.17544
2023-02-13T10:26:19.948Z,278.78261
2023-02-13T10:31:22.223Z,294
2023-02-13T10:36:23.902Z,230.51163
2023-02-13T10:41:25.543Z,280.61202
2023-02-13T10:46:27.203Z,227.87097
2023-02-13T10:51:28.953Z,268.21053
2023-02-13T10:56:30.964Z,315.08434
2023-02-13T11:01:33.142Z,306.35294
2023-02-13T11:06:34.919Z,300.06936
2023-02-13T11:11:36.818Z,261.52577
2023-02-13T11:16:38.943Z,255.11111
2023-02-13T11:21:40.959Z,315.08434
2023-02-13T11:26:43.003Z,329
2023-02-13T11:31:45.351Z,326.6087
2023-02-13T11:36:47.431Z,331.42138
2023-02-13T11:41:49.454Z,371.77778
2023-02-13T11:46:51.183Z,183.68872
2023-02-13T11:51:52.911Z,319.60976
2023-02-13T11:57:04.669Z,525.13208
2023-02-13T12:02:07.429Z,436.8
2023-02-13T12:07:09.286Z,407.15789
2023-02-13T12:12:10.980Z,208.37768
2023-02-13T12:17:56.455Z,151.40741
2023-02-13T12:23:00.118Z,222.73303
2023-02-13T12:28:02.496Z,208.37768
2023-02-13T12:33:04.719Z,217.77778
2023-02-13T12:38:06.711Z,195.42857
2023-02-13T12:43:08.699Z,261.52577
2023-02-13T12:48:10.845Z,227.87097
2023-02-13T12:53:12.833Z,258.28571
2023-02-13T12:58:14.923Z,294
2023-02-13T13:03:22.759Z,273.41176
2023-02-13T13:08:24.557Z,308.49704
2023-02-13T13:13:26.684Z,256.69036
2023-02-13T13:18:29.035Z,230.51163
2023-02-13T13:23:31.133Z,269.92593
2023-02-13T13:28:33.223Z,306.35294
2023-02-13T13:33:35.668Z,282.46154
2023-02-13T13:38:38.250Z,346.61438
2023-02-13T13:43:40.498Z,354.66667
2023-02-13T13:48:42.523Z,357.42282
2023-02-13T13:53:44.729Z,425.25
2023-02-13T13:58:47.054Z,280.61202
2023-02-13T14:03:49.440Z,384
2023-02-13T14:08:51.625Z,384
2023-02-13T14:13:53.461Z,321.91411
2023-02-13T14:18:55.288Z,275.1828
2023-02-13T14:23:57.028Z,336.35669
2023-02-13T14:28:58.894Z,317.33333
2023-02-13T14:34:00.935Z,244.4878
2023-02-13T14:39:02.664Z,292.0226
2023-02-13T14:44:04.491Z,273.41176
2023-02-13T14:49:06.295Z,240.15385
2023-02-13T14:54:08.128Z,288.13408
2023-02-13T14:59:10.035Z,259.89744
2023-02-13T15:04:12.140Z,212.99563
2023-02-13T15:09:13.967Z,106.10526
2023-02-13T15:14:15.858Z,102.35476
2023-02-13T15:19:18.004Z,141.4359
2023-02-13T15:24:20.147Z,174.71161
2023-02-13T15:29:29.405Z,191.38956
2023-02-13T15:34:35.193Z,206.12766
2023-02-13T15:39:37.186Z,205.01695
2023-02-13T15:44:39.015Z,172.14815
2023-02-13T15:49:40.703Z,189.41833
2023-02-13T15:54:42.453Z,175.57895
2023-02-13T15:59:44.221Z,173.85075
2023-02-13T16:04:46.386Z,145.30719
2023-02-13T16:09:48.356Z,133.53846
2023-02-13T16:14:50.429Z,157.88889
2023-02-13T16:19:53.527Z,141.4359
2023-02-13T16:24:55.496Z,161.66784
2023-02-13T16:29:57.592Z,163.21708
2023-02-13T16:34:59.932Z,190.4
2023-02-13T16:40:01.906Z,174.71161
2023-02-13T16:45:04.351Z,193.39271
2023-02-13T16:50:06.291Z,216.56637
2023-02-13T16:55:08.043Z,211.82609
2023-02-13T17:00:09.516Z,227.87097
2023-02-13T17:05:11.557Z,182.75969
2023-02-13T17:10:13.264Z,184.625
2023-02-13T17:15:14.935Z,163.21708
2023-02-13T17:20:17.590Z,154.23891
2023-02-13T17:25:19.794Z,160.90141
2023-02-13T17:30:21.726Z,167.18841
2023-02-13T17:35:23.842Z,167.18841
2023-02-13T17:40:25.733Z,164.78853
2023-02-13T17:45:27.479Z,154.23891
2023-02-13T17:50:29.300Z,145.30719
2023-02-13T17:55:30.834Z,130.10272
2023-02-13T18:00:32.756Z,109.14745
2023-02-13T18:05:34.690Z,103.17313
2023-02-13T18:10:36.474Z,108.26667
2023-02-13T18:15:38.502Z,110.48649
2023-02-13T18:20:40.761Z,110.93767
2023-02-13T18:25:42.598Z,105.67979
2023-02-13T18:30:44.625Z,112.30601
2023-02-13T18:35:46.802Z,113.69697
2023-02-13T18:40:48.633Z,111.84741
2023-02-13T18:45:50.439Z,109.5914
2023-02-13T18:50:52.504Z,108.26667
2023-02-13T18:55:54.595Z,113.23077
2023-02-13T19:00:56.454Z,113.23077
2023-02-13T19:05:58.747Z,117.52113
2023-02-13T19:11:00.669Z,115.58774
2023-02-13T19:16:02.632Z,112.30601
2023-02-13T19:21:04.430Z,114.16575
2023-02-13T19:26:06.501Z,117.03371
2023-02-13T19:31:08.743Z,120
2023-02-13T19:36:11.193Z,123.59184
2023-02-13T19:41:13.165Z,129.54217
2023-02-13T19:46:15.284Z,128.98498
2023-02-13T19:51:17.515Z,133.53846
2023-02-13T19:56:19.605Z,133.53846
2023-02-13T20:01:21.928Z,136.5
2023-02-13T20:06:24.037Z,134.71207
2023-02-13T20:11:26.166Z,139.55556
2023-02-13T20:16:28.017Z,135.90031
2023-02-13T20:21:29.948Z,138.32177
2023-02-13T20:26:32.005Z,142.07074
2023-02-13T20:31:33.954Z,137.71069
2023-02-13T20:36:36.556Z,146.63158
2023-02-13T20:41:38.564Z,153.52381
2023-02-13T20:46:40.416Z,142.07074
2023-02-13T20:51:42.324Z,148.65116
2023-02-13T20:56:43.864Z,156.41379
2023-02-13T21:01:45.341Z,152.81356
2023-02-13T21:06:47.129Z,142.70968
2023-02-13T21:11:48.652Z,143.35275
2023-02-13T21:16:50.266Z,145.96721
2023-02-13T21:21:51.769Z,137.71069
2023-02-13T21:26:53.229Z,143.35275
2023-02-13T21:31:55.216Z,140.80511
2023-02-13T21:36:57.409Z,137.71069
2023-02-13T21:41:59.217Z,132.3792
2023-02-13T21:47:00.841Z,128.43114
2023-02-13T21:52:02.435Z,125.71091
2023-02-13T21:57:03.936Z,127.8806
2023-02-13T22:02:05.574Z,128.98498
2023-02-13T22:07:07.537Z,131.23404
2023-02-13T22:12:09.140Z,130.66667
2023-02-13T22:17:10.915Z,133.53846
2023-02-13T22:22:12.719Z,128.43114
2023-02-13T22:27:14.170Z,131.23404
2023-02-13T22:32:15.951Z,130.10272
2023-02-13T22:37:18.128Z,131.80488
2023-02-13T22:42:24.906Z,135.30435
2023-02-13T22:47:26.690Z,136.5
2023-02-13T22:52:28.788Z,131.80488
2023-02-13T22:57:30.688Z,128.43114
2023-02-13T23:02:32.513Z,130.10272
2023-02-13T23:07:34.305Z,123.06977
2023-02-13T23:12:36.173Z,124.11696
2023-02-13T23:17:38.100Z,121.01149
2023-02-13T23:22:39.971Z,122.03468
2023-02-13T23:27:41.783Z,114.63712
2023-02-13T23:32:43.470Z,117.03371
2023-02-13T23:37:45.453Z,116.54902
2023-02-13T23:42:46.972Z,118.0113
2023-02-13T23:47:48.879Z,119
2023-02-13T23:52:50.619Z,118.50425
2023-02-13T23:57:52.516Z,119.49858
